createdAt,value
2023-01-24T00:00:59.634Z,1.06
2023-01-24T00:03:59.618Z,1.27
2023-01-24T00:06:59.644Z,0.69
2023-01-24T00:09:59.632Z,0.99
2023-01-24T00:12:59.601Z,1.16
2023-01-24T00:15:59.619Z,0.88
2023-01-24T00:18:59.815Z,0.72
2023-01-24T00:21:59.624Z,0.75
2023-01-24T00:24:59.680Z,1.13
2023-01-24T00:27:59.601Z,1.32
2023-01-24T00:30:59.666Z,1.37
2023-01-24T00:33:59.630Z,1.24
2023-01-24T00:36:59.677Z,1.23
2023-01-24T00:39:59.621Z,0.99
2023-01-24T00:42:59.652Z,0.86
2023-01-24T00:45:59.726Z,1.19
2023-01-24T00:49:00.155Z,0.81
2023-01-24T00:51:59.693Z,1.07
2023-01-24T00:54:59.618Z,0.61
2023-01-24T00:57:59.602Z,0.67
2023-01-24T01:00:59.710Z,0.71
2023-01-24T01:03:59.699Z,0.82
2023-01-24T01:06:59.650Z,0.73
2023-01-24T01:09:59.664Z,0.59
2023-01-24T01:12:59.668Z,1.01
2023-01-24T01:15:59.667Z,0.78
2023-01-24T01:18:59.786Z,0.69
2023-01-24T01:21:59.737Z,0.83
2023-01-24T01:24:59.609Z,0.63
2023-01-24T01:27:59.664Z,0.79
2023-01-24T01:30:59.805Z,0.9
2023-01-24T01:33:59.726Z,0.84
2023-01-24T01:36:59.708Z,1.06
2023-01-24T01:39:59.680Z,1.05
2023-01-24T01:42:59.755Z,1
2023-01-24T01:45:59.778Z,1.34
2023-01-24T01:48:59.730Z,1.1
2023-01-24T01:51:59.776Z,1.05
2023-01-24T01:54:59.680Z,0.95
2023-01-24T01:57:59.736Z,0.98
2023-01-24T02:00:59.715Z,1.2
2023-01-24T02:03:59.692Z,0.88
2023-01-24T02:06:59.697Z,0.89
2023-01-24T02:09:59.696Z,0.86
2023-01-24T02:12:59.696Z,0.85
2023-01-24T02:15:59.789Z,0.93
2023-01-24T02:18:59.696Z,1.27
2023-01-24T02:21:59.707Z,0.98
2023-01-24T02:24:59.711Z,0.94
2023-01-24T02:27:59.704Z,0.78
2023-01-24T02:30:59.761Z,1.28
2023-01-24T02:33:59.793Z,1.57
2023-01-24T02:36:59.777Z,1.19
2023-01-24T02:39:59.798Z,1.18
2023-01-24T02:42:59.698Z,1.33
2023-01-24T02:45:59.761Z,0.85
2023-01-24T02:48:59.702Z,0.79
2023-01-24T02:51:59.724Z,0.81
2023-01-24T02:54:59.743Z,0.88
2023-01-24T02:57:59.757Z,0.97
2023-01-24T03:00:59.750Z,1.22
2023-01-24T03:03:59.802Z,1.17
2023-01-24T03:06:59.754Z,1.35
2023-01-24T03:10:00.220Z,1.2
2023-01-24T03:12:59.767Z,1.23
2023-01-24T03:15:59.742Z,1.52
2023-01-24T03:18:59.854Z,1.45
2023-01-24T03:21:59.828Z,0.96
2023-01-24T03:24:59.832Z,0.87
2023-01-24T03:27:59.837Z,1.21
2023-01-24T03:30:59.748Z,1.09
2023-01-24T03:33:59.815Z,0.85
2023-01-24T03:36:59.775Z,0.86
2023-01-24T03:39:59.859Z,0.97
2023-01-24T03:42:59.886Z,1.29
2023-01-24T03:45:59.782Z,0.91
2023-01-24T03:48:59.772Z,0.99
2023-01-24T03:51:59.769Z,0.67
2023-01-24T03:54:59.791Z,0.55
2023-01-24T03:57:59.846Z,1.03
2023-01-24T04:00:59.795Z,1.26
2023-01-24T04:03:59.782Z,0.78
2023-01-24T04:06:59.874Z,0.94
2023-01-24T04:09:59.771Z,0.95
2023-01-24T04:12:59.848Z,0.92
2023-01-24T04:15:59.890Z,1.17
2023-01-24T04:18:59.819Z,0.98
2023-01-24T04:21:59.783Z,1.28
2023-01-24T04:24:59.801Z,0.84
2023-01-24T04:27:59.854Z,1.25
2023-01-24T04:31:00.006Z,1.12
2023-01-24T04:33:59.848Z,0.96
2023-01-24T04:36:59.880Z,0.98
2023-01-24T04:39:59.777Z,1.31
2023-01-24T04:42:59.848Z,0.97
2023-01-24T04:45:59.807Z,1.31
2023-01-24T04:48:59.893Z,1.46
2023-01-24T04:51:59.796Z,1.47
2023-01-24T04:54:59.825Z,1.12
2023-01-24T04:57:59.824Z,0.88
2023-01-24T05:01:00.695Z,0.96
2023-01-24T05:03:59.919Z,0.91
2023-01-24T05:06:59.811Z,0.98
2023-01-24T05:09:59.928Z,0.89
2023-01-24T05:12:59.898Z,0.71
2023-01-24T05:15:59.831Z,1.15
2023-01-24T05:18:59.848Z,0.93
2023-01-24T05:21:59.899Z,1.07
2023-01-24T05:24:59.852Z,1.12
2023-01-24T05:27:59.833Z,1.14
2023-01-24T05:30:59.848Z,0.86
2023-01-24T05:33:59.910Z,1.15
2023-01-24T05:36:59.908Z,1.17
2023-01-24T05:39:59.959Z,1.21
2023-01-24T05:42:59.934Z,0.95
2023-01-24T05:45:59.924Z,0.95
2023-01-24T05:48:59.899Z,0.56
2023-01-24T05:52:00.037Z,0.63
2023-01-24T05:54:59.846Z,0.93
2023-01-24T05:57:59.918Z,1.09
2023-01-24T06:00:59.959Z,1.1
2023-01-24T06:03:59.860Z,0.93
2023-01-24T06:06:59.899Z,0.88
2023-01-24T06:09:59.868Z,0.88
2023-01-24T06:12:59.909Z,0.66
2023-01-24T06:15:59.986Z,0.76
2023-01-24T06:18:59.964Z,0.55
2023-01-24T06:21:59.888Z,0.59
2023-01-24T06:24:59.876Z,0.64
2023-01-24T06:27:59.904Z,0.58
2023-01-24T06:30:59.981Z,0.75
2023-01-24T06:34:00.034Z,0.94
2023-01-24T06:36:59.927Z,0.56
2023-01-24T06:39:59.941Z,0.46
2023-01-24T06:43:00.008Z,0.55
2023-01-24T06:46:00.005Z,0.54
2023-01-24T06:48:59.972Z,0.79
2023-01-24T06:51:59.976Z,0.66
2023-01-24T06:55:00.004Z,0.77
2023-01-24T06:57:59.967Z,0.91
2023-01-24T07:00:59.947Z,0.59
2023-01-24T07:04:00.009Z,0.66
2023-01-24T07:06:59.954Z,0.76
2023-01-24T07:09:59.944Z,0.79
2023-01-24T07:12:59.916Z,0.97
2023-01-24T07:16:00.073Z,0.74
2023-01-24T07:18:59.904Z,0.62
2023-01-24T07:22:00.021Z,0.91
2023-01-24T07:25:00.017Z,0.72
2023-01-24T07:28:00.050Z,1.13
2023-01-24T07:30:59.978Z,0.8
2023-01-24T07:33:59.973Z,0.69
2023-01-24T07:36:59.984Z,1.09
2023-01-24T07:39:59.979Z,0.89
2023-01-24T07:42:59.969Z,0.98
2023-01-24T07:46:00.025Z,0.93
2023-01-24T07:48:59.998Z,1.26
2023-01-24T07:52:00.085Z,1.17
2023-01-24T07:55:00.027Z,1.09
2023-01-24T07:58:00.106Z,1.16
2023-01-24T08:01:00.131Z,0.94
2023-01-24T08:03:59.989Z,0.89
2023-01-24T08:07:00.091Z,1.26
2023-01-24T08:10:00.120Z,1.02
2023-01-24T08:13:00.005Z,0.9
2023-01-24T08:16:00.015Z,0.93
2023-01-24T08:18:59.997Z,0.7
2023-01-24T08:22:00.017Z,0.87
2023-01-24T08:25:00.093Z,0.7
2023-01-24T08:28:00.093Z,0.76
2023-01-24T08:31:00.039Z,0.64
2023-01-24T08:34:00.034Z,0.61
2023-01-24T08:37:00.080Z,0.96
2023-01-24T08:40:00.100Z,0.78
2023-01-24T08:43:00.087Z,0.56
2023-01-24T08:46:00.205Z,0.6
2023-01-24T08:49:00.013Z,0.79
2023-01-24T08:52:00.255Z,0.53
2023-01-24T08:55:00.077Z,0.36
2023-01-24T08:57:59.992Z,0.53
2023-01-24T09:01:00.088Z,0.66
2023-01-24T09:04:00.062Z,0.75
2023-01-24T09:07:00.095Z,0.52
2023-01-24T09:10:00.022Z,0.71
2023-01-24T09:13:00.097Z,0.7
2023-01-24T09:16:00.066Z,0.67
2023-01-24T09:19:00.033Z,0.72
2023-01-24T09:22:00.052Z,0.67
2023-01-24T09:25:00.144Z,0.77
2023-01-24T09:28:00.147Z,0.84
2023-01-24T09:31:00.095Z,0.51
2023-01-24T09:34:00.352Z,0.57
2023-01-24T09:37:00.075Z,0.74
2023-01-24T09:40:00.079Z,0.73
2023-01-24T09:43:00.145Z,0.9
2023-01-24T09:46:00.085Z,0.84
2023-01-24T09:49:00.132Z,0.6
2023-01-24T09:52:00.116Z,0.64
2023-01-24T09:55:00.076Z,0.81
2023-01-24T09:58:00.077Z,0.9
2023-01-24T10:01:00.121Z,0.99
2023-01-24T10:04:00.141Z,0.91
2023-01-24T10:07:00.174Z,0.78
2023-01-24T10:10:00.081Z,0.74
2023-01-24T10:13:00.122Z,0.52
2023-01-24T10:16:00.105Z,0.72
2023-01-24T10:19:00.110Z,0.73
2023-01-24T10:22:00.062Z,0.86
2023-01-24T10:25:00.119Z,0.77
2023-01-24T10:28:00.128Z,0.95
2023-01-24T10:31:00.189Z,0.8
2023-01-24T10:34:00.159Z,0.75
2023-01-24T10:37:00.088Z,0.57
2023-01-24T10:40:00.192Z,0.69
2023-01-24T10:43:00.143Z,0.62
2023-01-24T10:46:00.238Z,0.49
2023-01-24T10:49:00.103Z,0.48
2023-01-24T10:52:00.128Z,0.56
2023-01-24T10:55:00.202Z,0.75
2023-01-24T10:58:00.205Z,0.61
2023-01-24T11:01:00.191Z,0.77
2023-01-24T11:04:00.149Z,0.52
2023-01-24T11:07:00.135Z,0.57
2023-01-24T11:10:00.156Z,0.48
2023-01-24T11:13:00.163Z,0.57
2023-01-24T11:16:00.158Z,0.55
2023-01-24T11:19:00.211Z,0.53
2023-01-24T11:22:00.143Z,0.66
2023-01-24T11:25:00.120Z,0.68
2023-01-24T11:28:00.252Z,0.63
2023-01-24T11:31:00.278Z,0.63
2023-01-24T11:34:00.244Z,0.45
2023-01-24T11:37:00.154Z,0.76
2023-01-24T11:40:00.241Z,0.67
2023-01-24T11:43:00.249Z,0.58
2023-01-24T11:46:00.212Z,0.49
2023-01-24T11:49:00.201Z,0.8
2023-01-24T11:52:00.258Z,0.7
2023-01-24T11:55:00.286Z,0.54
2023-01-24T11:58:00.228Z,0.63
2023-01-24T12:01:00.276Z,0.68
2023-01-24T12:04:00.345Z,0.48
2023-01-24T12:07:00.193Z,0.74
2023-01-24T12:10:00.208Z,0.58
2023-01-24T12:13:00.208Z,0.48
2023-01-24T12:16:00.258Z,0.57
2023-01-24T12:19:00.267Z,0.51
2023-01-24T12:22:00.282Z,0.53
2023-01-24T12:25:00.303Z,0.31
2023-01-24T12:28:00.176Z,0.2
2023-01-24T12:31:00.374Z,0.42
2023-01-24T12:34:02.211Z,0.29
2023-01-24T12:37:00.269Z,0.3
2023-01-24T12:40:00.248Z,0.36
2023-01-24T12:43:00.199Z,0.47
2023-01-24T12:46:00.287Z,0.51
2023-01-24T12:49:04.653Z,0.39
2023-01-24T12:52:00.265Z,0.32
2023-01-24T12:55:00.284Z,0.55
2023-01-24T12:58:00.292Z,0.36
2023-01-24T13:01:00.312Z,0.51
2023-01-24T13:04:00.238Z,0.6
2023-01-24T13:07:00.251Z,0.38
2023-01-24T13:10:00.301Z,0.67
2023-01-24T13:13:00.316Z,0.51
2023-01-24T13:16:00.280Z,0.66
2023-01-24T13:19:00.245Z,0.23
2023-01-24T13:22:00.206Z,0.37
2023-01-24T13:25:00.347Z,0.19
2023-01-24T13:28:00.234Z,0.13
2023-01-24T13:31:00.366Z,0.53
2023-01-24T13:34:00.318Z,0.29
2023-01-24T13:37:00.252Z,0.24
2023-01-24T13:40:00.316Z,0.27
2023-01-24T13:43:00.355Z,0.3
2023-01-24T13:46:02.531Z,0.46
2023-01-24T13:49:00.344Z,0.51
2023-01-24T13:52:00.249Z,0.68
2023-01-24T13:55:00.292Z,0.66
2023-01-24T13:58:00.326Z,0.81
2023-01-24T14:01:00.412Z,0.71
2023-01-24T14:04:00.360Z,0.76
2023-01-24T14:07:00.347Z,0.48
2023-01-24T14:10:00.304Z,0.57
2023-01-24T14:13:02.803Z,0.77
2023-01-24T14:16:00.266Z,0.29
2023-01-24T14:19:00.354Z,0.27
2023-01-24T14:22:00.306Z,0.5
2023-01-24T14:25:00.308Z,0.54
2023-01-24T14:28:00.337Z,0.59
2023-01-24T14:31:00.350Z,0.43
2023-01-24T14:34:00.319Z,0.65
2023-01-24T14:37:00.317Z,0.71
2023-01-24T14:40:00.381Z,0.56
2023-01-24T14:43:00.391Z,0.52
2023-01-24T14:46:00.365Z,0.81
2023-01-24T14:49:00.303Z,0.78
2023-01-24T14:52:09.008Z,0.84
2023-01-24T14:55:00.312Z,0.65
2023-01-24T14:58:00.315Z,0.73
2023-01-24T15:01:00.391Z,0.82
2023-01-24T15:04:00.370Z,0.77
2023-01-24T15:07:00.351Z,0.41
2023-01-24T15:10:00.391Z,0.34
2023-01-24T15:13:00.382Z,0.38
2023-01-24T15:16:00.370Z,0.34
2023-01-24T15:19:00.379Z,0.34
2023-01-24T15:22:00.377Z,0.58
2023-01-24T15:25:00.381Z,0.66
2023-01-24T15:28:00.399Z,0.73
2023-01-24T15:31:00.496Z,0.38
2023-01-24T15:34:00.430Z,0.6
2023-01-24T15:37:00.449Z,0.41
2023-01-24T15:40:00.421Z,0.5
2023-01-24T15:43:00.401Z,0.49
2023-01-24T15:46:00.450Z,0.7
2023-01-24T15:49:00.376Z,0.59
2023-01-24T15:52:00.385Z,0.43
2023-01-24T15:55:00.964Z,0.5
2023-01-24T15:58:00.446Z,0.56
2023-01-24T16:01:00.466Z,0.29
2023-01-24T16:04:00.371Z,0.21
2023-01-24T16:07:00.370Z,0.11
2023-01-24T16:10:00.687Z,0.14
2023-01-24T16:13:00.456Z,0.2
2023-01-24T16:16:00.454Z,0.19
2023-01-24T16:19:00.357Z,0.39
2023-01-24T16:22:00.508Z,0.83
2023-01-24T16:25:00.390Z,0.69
2023-01-24T16:28:00.461Z,0.6
2023-01-24T16:31:00.524Z,0.78
2023-01-24T16:34:00.504Z,0.64
2023-01-24T16:37:00.612Z,0.24
2023-01-24T16:40:00.927Z,0.46
2023-01-24T16:43:00.403Z,0.49
2023-01-24T16:46:00.406Z,0.2
2023-01-24T16:49:00.495Z,0.07
2023-01-24T16:52:03.742Z,0.4
2023-01-24T16:55:00.481Z,0.26
2023-01-24T16:58:00.451Z,0.08
2023-01-24T17:01:00.519Z,0.08
2023-01-24T17:04:03.472Z,0.26
2023-01-24T17:07:02.937Z,0.23
2023-01-24T17:10:00.713Z,0.25
2023-01-24T17:13:00.443Z,0.19
2023-01-24T17:16:00.562Z,0.21
2023-01-24T17:19:00.468Z,0.35
2023-01-24T17:22:00.584Z,0.39
2023-01-24T17:25:00.540Z,0.39
2023-01-24T17:28:00.574Z,0.38
2023-01-24T17:31:00.576Z,0.36
2023-01-24T17:34:00.530Z,0.36
2023-01-24T17:37:00.490Z,0.31
2023-01-24T17:40:00.545Z,0.26
2023-01-24T17:43:00.524Z,0.21
2023-01-24T17:46:00.510Z,0.35
2023-01-24T17:49:00.504Z,0.49
2023-01-24T17:52:00.537Z,0.37
2023-01-24T17:55:00.461Z,0.2
2023-01-24T17:58:01.194Z,0.49
2023-01-24T18:01:00.605Z,0.13
2023-01-24T18:04:01.683Z,0.13
2023-01-24T18:07:00.472Z,0.36
2023-01-24T18:10:00.516Z,0.31
2023-01-24T18:13:00.504Z,0.24
2023-01-24T18:16:00.546Z,0.3
2023-01-24T18:19:00.525Z,0.07
2023-01-24T18:22:00.545Z,0.2
2023-01-24T18:25:00.595Z,0.3
2023-01-24T18:28:00.510Z,0.37
2023-01-24T18:31:03.295Z,0.22
2023-01-24T18:34:00.529Z,0.12
2023-01-24T18:37:00.652Z,0.3
2023-01-24T18:40:00.655Z,0.28
2023-01-24T18:43:00.564Z,0.31
2023-01-24T18:46:00.650Z,0.43
2023-01-24T18:49:00.583Z,0.27
2023-01-24T18:52:00.585Z,0.47
2023-01-24T18:55:00.499Z,0.65
2023-01-24T18:58:00.513Z,0.39
2023-01-24T19:01:00.612Z,0.23
2023-01-24T19:04:00.595Z,0.41
2023-01-24T19:07:00.570Z,0.4
2023-01-24T19:10:00.596Z,0.28
2023-01-24T19:13:00.580Z,0.44
2023-01-24T19:16:00.783Z,0.54
2023-01-24T19:19:00.615Z,0.47
2023-01-24T19:22:00.632Z,0.23
2023-01-24T19:25:00.596Z,0.42
2023-01-24T19:28:00.600Z,0.66
2023-01-24T19:31:00.837Z,0.58
2023-01-24T19:34:00.668Z,0.3
2023-01-24T19:37:00.596Z,0.29
2023-01-24T19:40:00.589Z,0.53
2023-01-24T19:43:00.546Z,0.29
2023-01-24T19:46:10.327Z,0.38
2023-01-24T19:49:00.577Z,0.31
2023-01-24T19:52:00.647Z,0.36
2023-01-24T19:55:00.673Z,0.23
2023-01-24T19:58:00.570Z,0.4
2023-01-24T20:01:00.619Z,0.51
2023-01-24T20:04:20.928Z,0.49
2023-01-24T20:07:01.723Z,0.51
2023-01-24T20:10:00.671Z,0.4
2023-01-24T20:13:00.655Z,0.33
2023-01-24T20:16:00.624Z,0.41
2023-01-24T20:19:03.763Z,0.18
2023-01-24T20:22:02.370Z,0.37
2023-01-24T20:25:02.422Z,0.5
2023-01-24T20:28:00.711Z,0.38
2023-01-24T20:31:02.109Z,0.43
2023-01-24T20:34:00.704Z,0.44
2023-01-24T20:37:00.587Z,0.49
2023-01-24T20:40:00.707Z,0.35
2023-01-24T20:49:01.692Z,0.43
2023-01-24T20:52:00.583Z,0.49
2023-01-24T20:55:00.686Z,0.61
2023-01-24T20:58:00.720Z,0.55
2023-01-24T21:01:00.740Z,0.5
2023-01-24T21:04:00.681Z,0.41
2023-01-24T21:07:00.641Z,0.48
2023-01-24T21:10:00.697Z,0.34
2023-01-24T21:13:00.649Z,0.38
2023-01-24T21:16:00.748Z,0.47
2023-01-24T21:19:00.713Z,0.38
2023-01-24T21:22:00.634Z,0.59
2023-01-24T21:25:00.630Z,0.39
2023-01-24T21:28:00.658Z,0.38
2023-01-24T21:31:00.772Z,0.43
2023-01-24T21:34:03.329Z,0.43
2023-01-24T21:37:00.692Z,0.22
2023-01-24T21:40:00.715Z,0.4
2023-01-24T21:43:00.673Z,0.68
2023-01-24T21:46:00.742Z,0.37
2023-01-24T21:49:00.733Z,0.31
2023-01-24T21:52:00.722Z,0.48
2023-01-24T21:55:00.784Z,0.48
2023-01-24T21:58:00.701Z,0.41
2023-01-24T22:01:00.746Z,0.37
2023-01-24T22:04:00.650Z,0.34
2023-01-24T22:07:00.780Z,0.62
2023-01-24T22:10:00.685Z,0.42
2023-01-24T22:13:00.779Z,0.3
2023-01-24T22:16:00.854Z,0.45
2023-01-24T22:19:00.723Z,0.48
2023-01-24T22:22:00.730Z,0.46
2023-01-24T22:25:00.745Z,0.49
2023-01-24T22:28:00.686Z,0.66
2023-01-24T22:31:00.784Z,0.69
2023-01-24T22:34:00.724Z,0.52
2023-01-24T22:37:00.938Z,0.63
2023-01-24T22:40:00.785Z,0.57
2023-01-24T22:43:00.744Z,0.62
2023-01-24T22:46:00.717Z,0.58
2023-01-24T22:49:00.797Z,0.65
2023-01-24T22:52:00.697Z,0.82
2023-01-24T22:55:00.737Z,0.79
2023-01-24T22:58:00.816Z,0.51
2023-01-24T23:01:00.730Z,0.82
2023-01-24T23:04:00.787Z,0.66
2023-01-24T23:07:00.880Z,0.47
2023-01-24T23:10:00.815Z,0.29
2023-01-24T23:13:00.725Z,0.45
2023-01-24T23:16:00.940Z,0.68
2023-01-24T23:19:00.739Z,0.64
2023-01-24T23:22:00.739Z,0.48
2023-01-24T23:25:00.875Z,0.75
2023-01-24T23:28:00.803Z,0.5
2023-01-24T23:31:00.740Z,0.46
2023-01-24T23:34:02.041Z,0.44
2023-01-24T23:37:00.917Z,0.5
2023-01-24T23:40:00.761Z,0.52
2023-01-24T23:43:00.921Z,0.69
2023-01-24T23:46:00.957Z,0.61
2023-01-24T23:49:00.757Z,0.42
2023-01-24T23:52:00.844Z,0.52
2023-01-24T23:55:00.824Z,0.59
2023-01-24T23:58:00.838Z,0.46
